KERV/ERV METAR and TAF weather

Enter ICAO airport designator
Station Type Date Time Source
KERV METAR 2021/07/29 01:55 UTC NOAA

KERV 290155Z AUTO 13003KT 10SM CLR 28/20 A3004 RMK AO2 T02750195


Station Type Date Time Source
KERV Decoded METAR 2021/07/29 01:55 UTC NOAA

Kerrville, Kerrville Municipal Airport/Louis Schreiner Field, TX, United States (KERV) 29-58N 099-05W
Jul 28, 2021 - 09:55 PM EDT / 2021.07.29 0155 UTC
Wind: from the SE (130 degrees) at 3 MPH (3 KT):0
Visibility: 10 mile(s):0
Sky conditions: clear
Temperature: 81.5 F (27.5 C)
Dew Point: 67.1 F (19.5 C)
Relative Humidity: 61%
Pressure (altimeter): 30.04 in. Hg (1017 hPa)
ob: KERV 290155Z AUTO 13003KT 10SM CLR 28/20 A3004 RMK AO2 T02750195
cycle: 2

Station Type Date Time Source
KERV TAF UTC NOAA

Error!

Example: see airport list